Hauptseite
METAR-TAF:

METAR-TAF

Flughäfen :

Biskra, Algerien

Breite: 34-48N, Länge: 005-44E, Höhe: 87 m

Beobachtung

Neuester Wetterbericht von vor 1 Stunde und 11 Minuten, um 07:00 UTC
Wind 6 kt aus Nord
Temperatur 9°C
Luftfeuchtigkeit 57%
Luftdruck 1023 hPa
Sichtweite 10 km oder mehr
keine Wolken unter 1500 m und keine Kumulonimbus oder Gewitterwolken

METAR: DAUB 240700Z 36006KT CAVOK 09/01 Q1023

Zeit: 09:11 (08:11 UTC)

Prognose

Neuester Wetterbericht von vor 3 Stunden und 11 Minuten, um 05:00 UTC
Gültige Prognose vom 24 um 06 UTC bis 25 um 06 UTC
Wind 12 kt aus Ost
Sichtweite 10 km oder mehr
Wahrscheinlichkeit 40% :
Zeitweise
vom 24 um 06 UTC bis 24 um 12 UTC
Wind 15 kt aus Ost/Südost, Böen bis zu 25 kt
Sichtweite: 4000 m
Sandfegen

TAF: DAUB 240500Z 2406/2506 10012KT 9999 NSC PROB40 TEMPO 2406/2412 11015G25KT 4000 DRSA

Wetterbeobachtungen und Prognosen von mehr als 4000 Flughäfen (METAR und TAF Bericht).

Die verfügbaren Stationen werden durch gelbe und rote Markierungen auf der Karte dargestellt.

Führen Sie die Maus auf sie, um den Namen der Station zu sehen.

Darauf klicken, um die Beobachtung von Wetterbeobachtungen und Prognosen zu sehen.

Um die Karte zu ändern : klicken Sie auf den grünen Tasten mit einem schwarzen Kreuz Zum Vergrößern, auf den grünen Button mit einem Gedankenstrich zu verkleinern, oder auf die grünen Pfeile für benachbarte Karten.


METAR-TAF: